Time;durP1;ratioP1;P1;durP2;ratioP2;P2;SDS_P1;SDS_P2;PMS_P1;PMS_P2;Temp;Humidity;BMP_temperature;BMP_pressure;BME280_temperature;BME280_humidity;BME280_pressure;Samples;Min_cycle;Max_cycle;Signal;HPM_P1;HPM_P2
2023/12/11 00:00:09;;;;;;;2.03;1.10;;;7.10;99.90;6.30;99096.00;;;;4953225;28;121257;-71
2023/12/11 00:02:34;;;;;;;1.97;1.43;;;6.50;99.90;6.30;99091.00;;;;4948669;28;99280;-72
2023/12/11 00:05:00;;;;;;;0.40;0.40;;;6.40;99.90;6.20;99089.00;;;;4949898;28;109048;-70
2023/12/11 00:07:26;;;;;;;2.07;0.67;;;6.40;99.90;6.20;99096.00;;;;4948495;28;122421;-69
2023/12/11 00:09:52;;;;;;;3.10;0.93;;;6.80;99.90;6.20;99092.00;;;;4951820;28;93647;-70
2023/12/11 00:12:17;;;;;;;3.03;0.90;;;6.40;99.90;6.10;99079.00;;;;4950138;28;108735;-69
2023/12/11 00:14:43;;;;;;;1.97;0.70;;;6.30;99.90;6.10;99059.00;;;;4957276;28;107306;-70
2023/12/11 00:17:09;;;;;;;0.77;0.73;;;6.30;99.90;6.10;99042.00;;;;4949716;28;122221;-70
2023/12/11 00:19:35;;;;;;;1.43;0.57;;;6.80;99.90;6.10;99049.00;;;;4951811;28;93285;-70
2023/12/11 00:22:00;;;;;;;1.23;0.90;;;6.40;99.90;6.00;99034.00;;;;4944968;28;108805;-70
2023/12/11 00:24:26;;;;;;;5.07;0.97;;;6.20;99.90;6.00;99028.00;;;;4949211;28;100307;-72
2023/12/11 00:26:52;;;;;;;4.50;0.87;;;6.20;99.90;6.00;99019.00;;;;4951702;28;92611;-72
2023/12/11 00:29:17;;;;;;;1.73;1.20;;;6.40;99.90;6.00;99009.00;;;;4946261;28;96864;-71
2023/12/11 00:31:43;;;;;;;2.00;0.87;;;6.70;99.90;5.90;99005.00;;;;4952989;28;110702;-72
2023/12/11 00:34:09;;;;;;;4.90;0.60;;;6.10;99.90;5.90;99000.00;;;;4950117;28;107981;-72
2023/12/11 00:36:35;;;;;;;1.63;0.93;;;6.10;99.90;5.90;98987.00;;;;4946595;28;108805;-74
2023/12/11 00:39:00;;;;;;;0.73;0.63;;;6.10;99.90;5.90;98983.00;;;;4949645;28;120937;-70
2023/12/11 00:41:26;;;;;;;2.27;0.73;;;6.10;99.90;5.90;98969.00;;;;4944505;28;99312;-71
2023/12/11 00:43:52;;;;;;;0.90;0.67;;;5.80;99.90;5.90;98979.00;;;;4948300;28;108684;-69
2023/12/11 00:46:21;;;;;;;5.20;1.13;;;6.60;99.90;5.90;98970.00;;;;4945888;28;122888;-72
2023/12/11 00:48:48;;;;;;;1.87;0.87;;;6.10;99.90;5.90;98958.00;;;;4951019;28;93132;-71
2023/12/11 00:51:19;;;;;;;0.73;0.73;;;6.10;99.90;5.90;98955.00;;;;4950011;28;92317;-69
2023/12/11 00:53:46;;;;;;;2.60;0.77;;;6.10;99.90;6.00;98955.00;;;;4950139;28;93061;-72
2023/12/11 00:56:12;;;;;;;1.40;1.07;;;6.40;99.90;6.00;98960.00;;;;4946876;28;94289;-70
2023/12/11 00:58:37;;;;;;;0.70;0.70;;;6.10;99.90;6.00;98948.00;;;;4947831;28;94055;-69
2023/12/11 01:01:04;;;;;;;3.83;0.70;;;6.50;99.90;6.00;98949.00;;;;4946944;28;109776;-69
2023/12/11 01:03:29;;;;;;;2.37;0.70;;;6.70;99.90;6.00;98932.00;;;;4948434;28;94435;-70
2023/12/11 01:05:55;;;;;;;0.83;0.60;;;6.10;99.90;6.00;98917.00;;;;4951095;28;93444;-70
2023/12/11 01:08:21;;;;;;;2.97;0.77;;;6.10;99.90;6.00;98917.00;;;;4946695;28;123395;-72
2023/12/11 01:10:46;;;;;;;3.70;0.60;;;6.40;99.90;6.10;98917.00;;;;4952084;28;92838;-70
2023/12/11 01:13:12;;;;;;;1.30;0.50;;;6.50;99.90;6.10;98920.00;;;;4946270;28;109099;-71
2023/12/11 01:15:38;;;;;;;1.13;0.73;;;6.30;99.90;6.10;98922.00;;;;4933084;28;121727;-72
2023/12/11 01:18:03;;;;;;;2.60;0.90;;;6.30;99.90;6.10;98914.00;;;;4948210;28;121126;-71
2023/12/11 01:20:29;;;;;;;0.50;0.50;;;6.40;99.90;6.10;98919.00;;;;4950023;28;110362;-72
2023/12/11 01:22:55;;;;;;;0.50;0.50;;;6.30;99.90;6.20;98916.00;;;;4955474;28;93865;-70
2023/12/11 01:25:21;;;;;;;4.40;1.07;;;6.30;99.90;6.20;98907.00;;;;4949829;28;95477;-71
2023/12/11 01:27:46;;;;;;;2.50;0.70;;;7.00;99.90;6.20;98895.00;;;;4948014;28;121306;-70
2023/12/11 01:30:12;;;;;;;0.83;0.57;;;6.40;99.90;6.20;98903.00;;;;4952814;28;109590;-70
2023/12/11 01:32:38;;;;;;;5.53;1.20;;;6.40;99.90;6.20;98897.00;;;;4934885;28;93986;-71
2023/12/11 01:35:04;;;;;;;0.87;0.60;;;6.40;99.90;6.20;98900.00;;;;4948826;28;94147;-71
2023/12/11 01:37:29;;;;;;;1.13;0.43;;;6.40;99.90;6.30;98902.00;;;;4952219;28;95324;-71
2023/12/11 01:39:55;;;;;;;5.40;0.83;;;6.40;99.90;6.30;98890.00;;;;4949869;28;110932;-71
2023/12/11 01:42:21;;;;;;;1.10;0.80;;;6.40;99.90;6.30;98880.00;;;;4949080;28;108912;-70
2023/12/11 01:44:46;;;;;;;3.37;0.67;;;6.40;99.90;6.30;98878.00;;;;4946959;28;94008;-71
2023/12/11 01:47:12;;;;;;;0.33;0.33;;;6.40;99.90;6.30;98883.00;;;;4948143;28;121587;-71
2023/12/11 01:49:38;;;;;;;1.80;0.80;;;6.40;99.90;6.30;98878.00;;;;4955470;28;92786;-73
2023/12/11 01:52:07;;;;;;;2.23;0.70;;;6.70;99.90;6.30;98880.00;;;;4953934;28;108413;-72
2023/12/11 01:54:35;;;;;;;2.50;1.37;;;6.50;99.90;6.40;98876.00;;;;4954410;28;115604;-70
2023/12/11 01:57:00;;;;;;;1.47;0.70;;;6.50;99.90;6.40;98878.00;;;;4958158;28;115679;-71
2023/12/11 01:59:27;;;;;;;2.17;0.90;;;6.50;99.90;6.50;98862.00;;;;4958036;28;110038;-71
2023/12/11 02:01:54;;;;;;;2.33;0.67;;;6.70;99.90;6.60;98865.00;;;;4953472;28;93257;-71
2023/12/11 02:04:19;;;;;;;3.50;1.03;;;7.20;99.90;6.70;98879.00;;;;4955494;28;92852;-68
2023/12/11 02:06:45;;;;;;;3.40;0.67;;;6.80;99.90;6.80;98882.00;;;;4958068;28;104433;-70
2023/12/11 02:09:11;;;;;;;2.10;0.87;;;6.90;99.90;6.80;98873.00;;;;4953885;28;94114;-71
2023/12/11 02:11:36;;;;;;;2.23;1.27;;;7.10;99.90;6.90;98878.00;;;;4953092;28;94497;-67
2023/12/11 02:14:02;;;;;;;3.43;0.60;;;7.20;99.90;7.00;98867.00;;;;4951403;28;121559;-70
2023/12/11 02:16:28;;;;;;;2.83;0.80;;;7.10;99.90;7.10;98864.00;;;;4952895;28;93620;-68
2023/12/11 02:18:54;;;;;;;6.73;0.33;;;7.20;99.90;7.10;98872.00;;;;4952748;28;109349;-69
2023/12/11 02:21:19;;;;;;;0.50;0.47;;;7.30;99.90;7.20;98877.00;;;;4953108;28;93003;-70
2023/12/11 02:24:08;;;;;;;2.10;0.60;;;7.30;99.90;7.20;98870.00;;;;4950494;28;121556;-70
2023/12/11 02:26:34;;;;;;;3.57;1.03;;;7.30;99.90;7.20;98870.00;;;;4936812;28;94533;-70
2023/12/11 02:29:00;;;;;;;0.27;0.27;;;7.30;99.90;7.20;98857.00;;;;4954714;28;108614;-70
2023/12/11 02:31:26;;;;;;;0.70;0.53;;;7.30;99.90;7.20;98869.00;;;;4949876;28;108023;-70
2023/12/11 02:33:51;;;;;;;1.80;0.63;;;7.30;99.90;7.20;98855.00;;;;4954783;28;122290;-71
2023/12/11 02:36:17;;;;;;;3.37;0.67;;;7.40;99.90;7.30;98863.00;;;;4949516;28;122155;-72
2023/12/11 02:38:43;;;;;;;2.53;0.60;;;7.40;99.90;7.30;98849.00;;;;4954026;28;107667;-72
2023/12/11 02:41:08;;;;;;;3.43;0.80;;;7.40;99.90;7.40;98863.00;;;;4951850;28;92811;-72
2023/12/11 02:43:35;;;;;;;5.30;1.03;;;7.50;99.90;7.30;98854.00;;;;4951002;28;100960;-72
2023/12/11 02:46:02;;;;;;;0.33;0.33;;;7.60;99.90;7.30;98853.00;;;;4946694;28;93799;-71
2023/12/11 02:48:29;;;;;;;0.50;0.50;;;7.50;99.90;7.30;98863.00;;;;4950958;28;93082;-73
2023/12/11 02:50:54;;;;;;;0.87;0.53;;;7.50;99.90;7.30;98861.00;;;;4948890;28;98694;-71
2023/12/11 02:53:20;;;;;;;4.40;0.37;;;7.50;99.90;7.30;98858.00;;;;4954334;28;121042;-73
2023/12/11 02:55:46;;;;;;;2.60;0.60;;;7.40;99.90;7.30;98866.00;;;;4964013;28;99924;-73
2023/12/11 02:58:11;;;;;;;0.53;0.53;;;7.40;99.90;7.30;98879.00;;;;4948758;28;102397;-71
2023/12/11 03:00:37;;;;;;;1.67;0.67;;;7.40;99.90;7.30;98871.00;;;;4953009;28;94073;-71
2023/12/11 03:03:03;;;;;;;0.47;0.33;;;7.50;99.90;7.30;98876.00;;;;4952378;28;118362;-70
2023/12/11 03:05:28;;;;;;;1.50;0.83;;;7.50;99.90;7.30;98867.00;;;;4957255;28;93844;-71
2023/12/11 03:07:54;;;;;;;1.90;0.40;;;7.50;99.90;7.30;98864.00;;;;4946638;28;109245;-71
2023/12/11 03:10:21;;;;;;;1.93;0.40;;;7.50;99.90;7.40;98874.00;;;;4953083;28;108759;-71
2023/12/11 03:12:47;;;;;;;0.77;0.50;;;7.50;99.90;7.30;98872.00;;;;4934317;28;94609;-72
2023/12/11 03:15:13;;;;;;;8.33;0.73;;;7.50;99.90;7.30;98881.00;;;;4949934;28;93053;-72
2023/12/11 03:17:38;;;;;;;0.90;0.50;;;7.50;99.90;7.40;98879.00;;;;4952285;28;102930;-72
2023/12/11 03:20:06;;;;;;;1.37;0.40;;;7.50;99.90;7.30;98885.00;;;;4954853;28;95151;-71
2023/12/11 03:22:34;;;;;;;3.20;0.87;;;8.00;99.90;7.40;98881.00;;;;4951555;28;93384;-70
2023/12/11 03:25:00;;;;;;;2.93;0.87;;;7.50;99.90;7.40;98885.00;;;;4966582;28;123091;-72
2023/12/11 03:27:26;;;;;;;1.63;0.50;;;7.50;99.90;7.40;98887.00;;;;4951855;28;111172;-72
2023/12/11 03:29:51;;;;;;;0.63;0.23;;;7.50;99.90;7.50;98885.00;;;;4949702;28;105238;-70
2023/12/11 03:32:17;;;;;;;0.30;0.30;;;7.60;99.90;7.50;98889.00;;;;4952065;28;122153;-70
2023/12/11 03:34:43;;;;;;;2.47;0.63;;;7.70;99.90;7.60;98880.00;;;;4951352;28;122010;-72
2023/12/11 03:37:09;;;;;;;1.97;0.73;;;7.70;99.90;7.70;98879.00;;;;4952966;28;110269;-70
2023/12/11 03:39:35;;;;;;;4.53;0.97;;;7.80;99.90;7.70;98866.00;;;;4955357;28;92897;-70
2023/12/11 03:42:01;;;;;;;2.77;0.50;;;7.80;99.90;7.70;98881.00;;;;4949754;28;123483;-69
2023/12/11 03:44:26;;;;;;;0.43;0.40;;;7.80;99.90;7.80;98873.00;;;;4950416;28;121716;-71
2023/12/11 03:46:52;;;;;;;2.20;0.50;;;7.90;99.90;7.80;98881.00;;;;4951219;28;110395;-72
2023/12/11 03:49:19;;;;;;;0.70;0.50;;;8.00;99.90;7.90;98874.00;;;;4953443;28;110266;-70
2023/12/11 03:51:46;;;;;;;0.47;0.40;;;8.00;99.90;7.90;98883.00;;;;4952963;28;94261;-70
2023/12/11 03:54:12;;;;;;;1.50;0.77;;;8.00;99.90;7.90;98889.00;;;;4956304;28;93839;-69
2023/12/11 03:56:41;;;;;;;0.60;0.53;;;8.00;99.90;7.90;98884.00;;;;4945264;28;110642;-71
2023/12/11 03:59:07;;;;;;;0.63;0.50;;;8.00;99.90;7.90;98882.00;;;;4947872;28;101975;-71
2023/12/11 04:01:32;;;;;;;0.80;0.60;;;8.10;99.90;8.00;98886.00;;;;4952345;28;122179;-70
2023/12/11 04:04:00;;;;;;;1.20;0.50;;;8.00;99.90;7.90;98876.00;;;;4955840;28;122856;-71
2023/12/11 04:06:25;;;;;;;3.03;0.73;;;8.10;99.90;7.90;98880.00;;;;4954167;28;92213;-70
2023/12/11 04:08:51;;;;;;;1.17;0.40;;;8.10;99.90;7.90;98875.00;;;;4947280;28;93165;-72
2023/12/11 04:11:17;;;;;;;0.40;0.40;;;8.00;99.90;7.90;98877.00;;;;4947812;28;123070;-70
2023/12/11 04:13:43;;;;;;;0.33;0.33;;;8.00;99.90;7.90;98887.00;;;;4950543;28;122577;-72
2023/12/11 04:16:09;;;;;;;0.80;0.70;;;8.00;99.90;7.90;98874.00;;;;4952892;28;93018;-71
2023/12/11 04:18:39;;;;;;;1.77;0.60;;;8.00;99.90;7.90;98883.00;;;;4951333;28;93323;-70
2023/12/11 04:21:06;;;;;;;0.77;0.73;;;8.10;99.90;7.90;98890.00;;;;4951608;28;93911;-71
2023/12/11 04:23:31;;;;;;;0.53;0.50;;;8.00;99.90;7.90;98889.00;;;;4955267;28;113411;-71
2023/12/11 04:25:58;;;;;;;2.83;0.60;;;8.00;99.90;7.90;98900.00;;;;4953544;28;101957;-72
2023/12/11 04:28:25;;;;;;;2.73;0.77;;;8.00;99.90;7.90;98899.00;;;;4955743;28;92877;-71
2023/12/11 04:30:51;;;;;;;2.00;0.43;;;8.10;99.90;8.00;98900.00;;;;4950590;28;105977;-71
2023/12/11 04:33:16;;;;;;;1.67;0.50;;;8.10;99.90;8.10;98904.00;;;;4952235;28;110697;-71
2023/12/11 04:35:42;;;;;;;1.00;0.50;;;8.20;99.90;8.20;98911.00;;;;4949782;28;93174;-71
2023/12/11 04:38:08;;;;;;;2.67;0.97;;;8.20;99.90;8.30;98898.00;;;;4946451;28;93788;-72
2023/12/11 04:40:33;;;;;;;0.70;0.60;;;8.30;99.90;8.30;98886.00;;;;4948172;28;93052;-71
2023/12/11 04:42:59;;;;;;;1.97;0.53;;;8.40;99.90;8.40;98900.00;;;;4951258;28;121592;-71
2023/12/11 04:45:24;;;;;;;0.83;0.67;;;8.50;99.90;8.40;98910.00;;;;4949180;28;110139;-72
2023/12/11 04:47:50;;;;;;;4.13;1.07;;;8.50;99.90;8.50;98909.00;;;;4948181;28;108510;-72
2023/12/11 04:50:16;;;;;;;0.67;0.30;;;8.60;99.90;8.50;98890.00;;;;4946645;28;123496;-70
2023/12/11 04:52:41;;;;;;;4.27;0.90;;;8.60;99.90;8.60;98905.00;;;;4949261;28;122334;-71
2023/12/11 04:55:07;;;;;;;1.30;0.33;;;8.60;99.90;8.60;98901.00;;;;4947126;28;110951;-71
2023/12/11 04:57:33;;;;;;;1.47;0.93;;;8.70;99.90;8.70;98905.00;;;;4944716;28;105564;-72
2023/12/11 04:59:58;;;;;;;1.37;0.73;;;8.80;99.90;8.70;98915.00;;;;4952733;28;123228;-71
2023/12/11 05:02:24;;;;;;;5.77;1.17;;;8.80;99.90;8.80;98902.00;;;;4964798;28;121092;-73
2023/12/11 05:04:50;;;;;;;2.13;0.67;;;8.90;99.90;8.90;98911.00;;;;4950565;28;109575;-70
2023/12/11 05:07:15;;;;;;;1.13;0.60;;;8.90;99.90;8.90;98920.00;;;;4949020;28;95729;-72
2023/12/11 05:09:41;;;;;;;1.23;0.70;;;9.00;99.90;9.00;98927.00;;;;4947770;28;92967;-70
2023/12/11 05:12:07;;;;;;;0.67;0.67;;;9.10;99.90;9.00;98925.00;;;;4949817;28;93682;-71
2023/12/11 05:14:33;;;;;;;1.10;0.70;;;9.10;99.90;9.00;98913.00;;;;4943044;28;92957;-71
2023/12/11 05:16:59;;;;;;;0.83;0.57;;;9.10;99.90;9.00;98924.00;;;;4940460;28;108917;-69
2023/12/11 05:19:24;;;;;;;4.60;1.00;;;9.20;99.90;9.10;98917.00;;;;4952215;28;93281;-72
2023/12/11 05:21:51;;;;;;;0.87;0.73;;;9.20;99.90;9.10;98918.00;;;;4936454;28;122023;-69
2023/12/11 05:24:16;;;;;;;0.40;0.40;;;9.20;99.90;9.00;98932.00;;;;4950506;28;93882;-71
2023/12/11 05:26:42;;;;;;;0.43;0.43;;;9.20;99.90;9.10;98929.00;;;;4945424;28;108739;-69
2023/12/11 05:29:08;;;;;;;0.60;0.50;;;9.20;99.90;9.10;98926.00;;;;4943605;28;123314;-69
2023/12/11 05:31:33;;;;;;;4.13;0.70;;;9.30;99.90;9.10;98932.00;;;;4943746;28;123332;-70
2023/12/11 05:33:59;;;;;;;1.17;0.57;;;9.20;99.90;9.10;98936.00;;;;4945376;28;108660;-71
2023/12/11 05:36:25;;;;;;;0.27;0.27;;;9.20;99.90;9.20;98935.00;;;;4947484;28;108671;-70
2023/12/11 05:38:51;;;;;;;1.83;0.40;;;9.30;99.90;9.20;98941.00;;;;4945425;28;109797;-71
2023/12/11 05:41:17;;;;;;;1.27;0.70;;;9.20;99.90;9.20;98923.00;;;;4947365;28;105829;-70
2023/12/11 05:43:43;;;;;;;1.30;0.70;;;9.30;99.90;9.20;98933.00;;;;4951827;28;102599;-73
2023/12/11 05:46:09;;;;;;;1.40;0.83;;;9.30;99.90;9.20;98917.00;;;;4947506;28;108407;-71
2023/12/11 05:48:34;;;;;;;0.50;0.50;;;9.30;99.90;9.20;98937.00;;;;4947626;28;97289;-74
2023/12/11 05:51:00;;;;;;;2.40;0.70;;;9.30;99.90;9.20;98929.00;;;;4945928;28;94663;-71
2023/12/11 05:53:25;;;;;;;1.03;0.70;;;9.30;99.90;9.20;98936.00;;;;4945003;28;110657;-71
2023/12/11 05:55:51;;;;;;;2.00;0.67;;;9.30;99.90;9.20;98930.00;;;;4944220;28;108857;-70
2023/12/11 05:58:17;;;;;;;0.83;0.73;;;9.30;99.90;9.10;98926.00;;;;4949761;28;93861;-70
2023/12/11 06:00:44;;;;;;;0.80;0.63;;;9.20;99.90;9.00;98928.00;;;;4945146;28;93636;-71
2023/12/11 06:03:10;;;;;;;0.67;0.67;;;9.00;99.90;8.90;98930.00;;;;4946982;28;92678;-71
2023/12/11 06:05:36;;;;;;;1.83;0.87;;;9.10;99.90;8.90;98931.00;;;;4944622;28;108147;-70
2023/12/11 06:08:02;;;;;;;1.43;0.50;;;9.00;99.90;8.80;98932.00;;;;4943476;28;92834;-70
2023/12/11 06:10:29;;;;;;;1.80;0.73;;;9.00;99.90;8.80;98917.00;;;;4943302;28;106646;-70
2023/12/11 06:12:55;;;;;;;0.53;0.33;;;8.90;99.90;8.70;98938.00;;;;4951655;28;93252;-70
2023/12/11 06:15:20;;;;;;;2.23;0.93;;;8.90;99.90;8.70;98937.00;;;;4952909;28;98666;-69
2023/12/11 06:17:46;;;;;;;1.77;0.90;;;8.80;99.90;8.60;98936.00;;;;4951223;28;93163;-70
2023/12/11 06:20:12;;;;;;;2.73;0.67;;;8.80;99.90;8.60;98943.00;;;;4950527;28;121853;-69
2023/12/11 06:22:37;;;;;;;6.30;1.03;;;8.70;99.90;8.50;98942.00;;;;4950094;28;109696;-71
2023/12/11 06:25:03;;;;;;;5.37;0.87;;;8.70;99.90;8.50;98941.00;;;;4952429;28;107811;-70
2023/12/11 06:27:29;;;;;;;2.47;0.87;;;8.60;99.90;8.40;98939.00;;;;4945374;28;107592;-71
2023/12/11 06:29:55;;;;;;;0.67;0.60;;;8.60;99.90;8.40;98927.00;;;;4944860;28;122478;-70
2023/12/11 06:32:21;;;;;;;0.77;0.73;;;8.50;99.90;8.30;98929.00;;;;4951681;28;95613;-71
2023/12/11 06:34:46;;;;;;;2.93;0.73;;;8.50;99.90;8.30;98931.00;;;;4960662;28;93348;-70
2023/12/11 06:37:12;;;;;;;2.47;0.90;;;8.50;99.90;8.30;98925.00;;;;4954284;28;111233;-71
2023/12/11 06:39:38;;;;;;;0.53;0.53;;;8.40;99.90;8.20;98921.00;;;;4950661;28;122495;-70
2023/12/11 06:42:04;;;;;;;0.60;0.47;;;8.30;99.90;8.20;98929.00;;;;4954188;28;109641;-73
2023/12/11 06:44:30;;;;;;;1.63;0.97;;;8.30;99.90;8.10;98927.00;;;;4952904;28;100608;-72
2023/12/11 06:46:57;;;;;;;1.93;0.90;;;8.30;99.90;8.10;98941.00;;;;4949229;28;93734;-72
2023/12/11 06:49:22;;;;;;;1.77;0.73;;;8.30;99.90;8.10;98925.00;;;;4950021;28;123779;-73
2023/12/11 06:51:49;;;;;;;1.87;0.60;;;8.30;99.90;8.10;98935.00;;;;4950596;28;110416;-72
2023/12/11 06:54:15;;;;;;;1.30;0.60;;;8.20;99.90;8.10;98936.00;;;;4940223;28;93272;-74
2023/12/11 06:56:41;;;;;;;1.73;0.93;;;8.20;99.90;8.10;98928.00;;;;4953150;28;92384;-72
2023/12/11 06:59:07;;;;;;;4.17;0.90;;;8.20;99.90;8.00;98935.00;;;;4952008;28;121771;-73
2023/12/11 07:01:34;;;;;;;3.20;1.47;;;8.20;99.90;8.00;98934.00;;;;4955984;28;92968;-73
2023/12/11 07:04:01;;;;;;;1.20;0.80;;;8.10;99.90;8.00;98932.00;;;;4954400;28;94189;-75
2023/12/11 07:06:37;;;;;;;3.17;1.30;;;8.10;99.90;8.00;98933.00;;;;4952500;28;93138;-73
2023/12/11 07:09:03;;;;;;;3.90;1.23;;;8.10;99.90;8.00;98942.00;;;;4949894;28;92917;-74
2023/12/11 07:11:31;;;;;;;0.77;0.50;;;8.10;99.90;8.00;98942.00;;;;4964325;28;110809;-73
2023/12/11 07:13:57;;;;;;;3.80;1.33;;;8.10;99.90;8.00;98933.00;;;;4953202;28;108795;-74
2023/12/11 07:16:23;;;;;;;2.77;0.97;;;8.10;99.90;8.00;98932.00;;;;4953914;28;124470;-71
2023/12/11 07:18:48;;;;;;;2.37;1.10;;;8.10;99.90;8.00;98936.00;;;;4958534;28;92952;-73
2023/12/11 07:21:14;;;;;;;2.30;0.93;;;8.10;99.90;8.10;98949.00;;;;4954799;28;109409;-74
2023/12/11 07:23:40;;;;;;;0.87;0.60;;;8.20;99.90;8.10;98946.00;;;;4956568;28;108372;-71
2023/12/11 07:26:08;;;;;;;4.13;1.40;;;8.20;99.90;8.10;98955.00;;;;4951310;27;95178;-72
2023/12/11 07:28:36;;;;;;;1.13;0.70;;;8.20;99.90;8.20;98953.00;;;;4962411;28;94267;-72
2023/12/11 07:31:03;;;;;;;3.03;1.27;;;8.20;99.90;8.20;98955.00;;;;4951699;28;93007;-72
2023/12/11 07:33:29;;;;;;;1.00;0.60;;;8.30;99.90;8.30;98950.00;;;;4953354;28;92918;-73
2023/12/11 07:35:55;;;;;;;3.97;0.77;;;8.30;99.90;8.40;98935.00;;;;4954968;28;123713;-73
2023/12/11 07:38:21;;;;;;;0.63;0.30;;;8.50;99.90;8.50;98950.00;;;;4948141;28;92894;-73
2023/12/11 07:40:47;;;;;;;0.87;0.83;;;8.50;99.90;8.60;98943.00;;;;4954171;28;93138;-72
2023/12/11 07:43:12;;;;;;;4.53;0.90;;;8.20;99.90;8.70;98941.00;;;;4942196;28;108273;-72
2023/12/11 07:45:38;;;;;;;1.00;0.50;;;8.80;99.90;8.80;98945.00;;;;4948388;28;92149;-73
2023/12/11 07:48:04;;;;;;;2.07;0.83;;;9.70;99.90;8.80;98951.00;;;;4950085;28;122245;-74
2023/12/11 07:50:30;;;;;;;0.73;0.53;;;8.90;99.90;8.90;98954.00;;;;4948579;28;102627;-72
2023/12/11 07:52:55;;;;;;;0.57;0.40;;;8.90;99.90;8.90;98942.00;;;;4947669;28;107478;-72
2023/12/11 07:55:21;;;;;;;4.30;1.03;;;9.00;99.90;8.90;98947.00;;;;4953548;28;122415;-72
2023/12/11 07:57:47;;;;;;;1.80;0.50;;;9.00;99.90;8.90;98957.00;;;;4946636;28;122872;-72
2023/12/11 08:00:13;;;;;;;0.40;0.40;;;9.00;99.90;9.00;98935.00;;;;4952034;28;108086;-73
2023/12/11 08:02:39;;;;;;;6.47;1.17;;;9.00;99.90;9.10;98936.00;;;;4930644;28;93011;-72
2023/12/11 08:05:05;;;;;;;2.90;0.60;;;9.40;99.90;9.20;98941.00;;;;4956295;28;123522;-73
2023/12/11 08:07:30;;;;;;;1.90;1.20;;;9.80;99.90;9.20;98932.00;;;;4958309;28;123591;-72
2023/12/11 08:09:56;;;;;;;1.17;0.77;;;9.30;99.90;9.30;98936.00;;;;4950381;28;102884;-72
2023/12/11 08:12:22;;;;;;;1.03;0.40;;;9.40;99.90;9.40;98945.00;;;;4948579;28;93086;-71
2023/12/11 08:14:47;;;;;;;4.70;0.93;;;9.40;99.90;9.40;98921.00;;;;4952075;28;122411;-72
2023/12/11 08:17:13;;;;;;;1.40;0.50;;;9.50;99.90;9.60;98930.00;;;;4952819;28;93895;-73
2023/12/11 08:19:39;;;;;;;6.60;0.60;;;9.60;99.90;9.80;98936.00;;;;4949779;28;109622;-73
2023/12/11 08:22:04;;;;;;;0.47;0.27;;;9.80;99.90;10.10;98927.00;;;;4951024;28;108982;-73
2023/12/11 08:24:30;;;;;;;3.43;0.70;;;10.00;99.90;10.40;98936.00;;;;4949330;28;125121;-73
2023/12/11 08:26:56;;;;;;;4.33;0.70;;;10.30;99.90;10.50;98943.00;;;;4950256;28;122376;-74
2023/12/11 08:29:22;;;;;;;6.53;0.77;;;10.50;99.90;10.60;98926.00;;;;4953583;28;111796;-72
2023/12/11 08:31:49;;;;;;;2.77;0.80;;;11.20;99.90;10.50;98937.00;;;;4960895;28;92849;-72
2023/12/11 08:34:15;;;;;;;1.27;0.50;;;10.60;99.90;10.40;98929.00;;;;4952420;28;92651;-73
2023/12/11 08:36:41;;;;;;;1.63;0.63;;;10.60;99.90;10.40;98923.00;;;;4951044;28;110273;-71
2023/12/11 08:39:06;;;;;;;1.67;0.90;;;10.50;99.90;10.30;98931.00;;;;4952135;28;109767;-71
2023/12/11 08:41:33;;;;;;;4.70;0.70;;;10.40;99.90;10.20;98933.00;;;;4954681;28;107992;-74
2023/12/11 08:43:59;;;;;;;1.10;0.40;;;10.40;99.90;10.20;98926.00;;;;4945032;28;113356;-71
2023/12/11 08:46:25;;;;;;;2.57;0.70;;;10.30;99.90;10.30;98926.00;;;;4948573;28;122304;-71
2023/12/11 08:48:51;;;;;;;0.47;0.40;;;10.30;99.90;10.50;98927.00;;;;4945521;28;92901;-71
2023/12/11 08:51:20;;;;;;;3.20;0.90;;;10.50;99.90;10.80;98925.00;;;;4948896;28;92896;-72
2023/12/11 08:53:45;;;;;;;7.73;0.73;;;10.70;99.90;11.10;98935.00;;;;4950813;28;121995;-73
2023/12/11 08:56:13;;;;;;;1.33;0.60;;;11.10;99.90;11.40;98910.00;;;;4946751;28;121476;-74
2023/12/11 08:58:39;;;;;;;5.67;1.47;;;11.30;99.90;11.60;98910.00;;;;4953016;28;93692;-72
2023/12/11 09:01:05;;;;;;;3.40;1.30;;;11.60;99.90;11.80;98917.00;;;;4949945;28;107515;-72
2023/12/11 09:03:31;;;;;;;6.73;1.10;;;11.70;99.90;11.80;98907.00;;;;4952680;28;93265;-74
2023/12/11 09:05:57;;;;;;;1.80;0.87;;;11.90;99.90;11.70;98910.00;;;;4946743;28;123110;-72
2023/12/11 09:08:22;;;;;;;3.10;0.90;;;11.80;99.90;11.60;98905.00;;;;4948812;28;109035;-71
2023/12/11 09:10:48;;;;;;;2.73;0.73;;;11.70;99.90;11.50;98905.00;;;;4947391;28;109609;-72
2023/12/11 09:13:14;;;;;;;1.13;0.47;;;11.60;99.90;11.50;98896.00;;;;4947449;28;122763;-73
2023/12/11 09:15:39;;;;;;;4.97;0.87;;;11.50;99.90;11.40;98901.00;;;;4949209;28;121717;-71
2023/12/11 09:18:06;;;;;;;0.50;0.30;;;11.50;99.90;11.40;98906.00;;;;4948691;28;111766;-71
2023/12/11 09:20:32;;;;;;;1.03;0.50;;;11.50;99.90;11.40;98899.00;;;;4951186;28;94534;-74
2023/12/11 09:22:57;;;;;;;5.30;0.50;;;11.50;99.90;11.40;98895.00;;;;4935556;28;93936;-70
2023/12/11 09:25:23;;;;;;;1.57;0.73;;;11.40;99.90;11.30;98902.00;;;;4952053;28;122328;-74
2023/12/11 09:27:49;;;;;;;1.50;0.50;;;11.40;99.90;11.30;98899.00;;;;4953107;28;93058;-73
2023/12/11 09:30:14;;;;;;;3.37;0.70;;;11.40;99.90;11.30;98910.00;;;;4951924;28;93641;-71
2023/12/11 09:32:40;;;;;;;1.97;0.67;;;11.30;99.90;11.30;98888.00;;;;4948544;28;93720;-74
2023/12/11 09:35:07;;;;;;;4.23;0.63;;;11.30;99.90;11.20;98900.00;;;;4950285;28;93022;-69
2023/12/11 09:37:33;;;;;;;1.07;0.50;;;11.30;99.90;11.20;98900.00;;;;4948746;28;92852;-72
2023/12/11 09:39:59;;;;;;;5.67;0.63;;;11.20;99.90;11.10;98900.00;;;;4950295;28;96769;-71
2023/12/11 09:42:26;;;;;;;0.97;0.27;;;11.20;99.90;11.00;98895.00;;;;4948946;28;123001;-71
2023/12/11 09:44:52;;;;;;;0.97;0.70;;;11.10;99.90;10.90;98898.00;;;;4945120;28;122912;-71
2023/12/11 09:47:25;;;;;;;4.03;1.30;;;11.00;99.90;10.90;98894.00;;;;4950748;28;92194;-73
2023/12/11 09:49:51;;;;;;;10.30;2.10;;;11.00;99.90;10.80;98898.00;;;;4942779;28;97818;-72
2023/12/11 09:52:18;;;;;;;3.40;0.80;;;10.90;99.90;10.70;98887.00;;;;4946982;28;124792;-71
2023/12/11 09:54:43;;;;;;;3.00;0.80;;;10.80;99.90;10.60;98895.00;;;;4950670;28;104581;-71
2023/12/11 09:57:15;;;;;;;0.93;0.60;;;10.70;99.90;10.60;98884.00;;;;4948489;28;110337;-70
2023/12/11 09:59:42;;;;;;;1.07;0.50;;;10.70;99.90;10.60;98883.00;;;;4945597;28;94004;-70
2023/12/11 10:02:14;;;;;;;5.60;0.37;;;10.70;99.90;10.50;98892.00;;;;4943631;28;113125;-73
2023/12/11 10:05:24;;;;;;;2.83;0.60;;;10.60;99.90;10.30;98876.00;;;;4949228;28;93478;-72
2023/12/11 10:07:50;;;;;;;1.33;0.70;;;10.60;99.90;10.30;98872.00;;;;4951269;28;93129;-70
2023/12/11 10:10:26;;;;;;;2.70;0.83;;;10.40;99.90;10.20;98881.00;;;;4950038;28;92983;-71
2023/12/11 10:12:55;;;;;;;1.00;0.80;;;10.30;99.90;10.10;98884.00;;;;4954120;28;93586;-71
2023/12/11 10:15:28;;;;;;;2.00;0.40;;;10.30;99.90;10.00;98885.00;;;;4953766;28;93448;-70
2023/12/11 10:18:11;;;;;;;4.27;0.77;;;10.20;99.90;9.70;98880.00;;;;4954546;28;93232;-73
2023/12/11 10:20:39;;;;;;;6.17;0.83;;;9.90;99.90;9.50;98868.00;;;;4950443;28;93987;-75
2023/12/11 10:23:17;;;;;;;1.27;0.53;;;9.70;99.90;9.30;98868.00;;;;4953111;28;98634;-76
2023/12/11 10:26:03;;;;;;;1.60;1.07;;;9.60;99.90;9.20;98862.00;;;;4947799;28;93089;-79
2023/12/11 10:28:29;;;;;;;5.63;1.03;;;9.40;99.90;9.10;98862.00;;;;4966143;28;94340;-76
2023/12/11 10:30:59;;;;;;;4.63;1.07;;;9.30;99.90;9.10;98861.00;;;;4952888;28;106700;-79
2023/12/11 10:33:27;;;;;;;0.87;0.50;;;9.20;99.90;9.10;98856.00;;;;4944267;28;93335;-79
2023/12/11 10:36:15;;;;;;;3.13;0.70;;;9.30;99.90;9.10;98878.00;;;;4953829;28;93302;-78
2023/12/11 10:38:42;;;;;;;1.57;1.10;;;9.20;99.90;9.10;98865.00;;;;4950800;28;92374;-69
2023/12/11 10:41:09;;;;;;;0.57;0.47;;;9.20;99.90;9.00;98861.00;;;;4950501;28;93138;-69
2023/12/11 10:43:42;;;;;;;0.80;0.60;;;9.20;99.90;8.90;98872.00;;;;4951709;28;94049;-70
2023/12/11 10:46:09;;;;;;;1.00;0.63;;;9.10;99.90;8.80;98866.00;;;;4940599;28;95831;-72
2023/12/11 10:48:36;;;;;;;5.57;1.23;;;9.00;99.90;8.80;98862.00;;;;4950913;28;93049;-74
2023/12/11 10:51:05;;;;;;;0.70;0.70;;;9.00;99.90;8.80;98859.00;;;;4952318;28;93167;-73
2023/12/11 10:53:33;;;;;;;1.70;0.80;;;8.90;99.90;8.70;98861.00;;;;4947719;28;101316;-76
2023/12/11 10:56:01;;;;;;;1.07;0.87;;;8.90;99.90;8.70;98852.00;;;;4943536;28;93042;-72
2023/12/11 10:58:27;;;;;;;1.70;0.67;;;8.80;99.90;8.60;98856.00;;;;4952436;28;102608;-70